Koyukuk, AK (99754)

05:57:AKDT den 02. september 2014 (GMT -0800)
Pitka | Change Station
CLOSE
Current Station
Flyplass
Location: Galena,
Høyde over havet: 151 ft
Nearby Weather Stations
Gjeldende advarsel: Areal Flood Advisory Gjeldende meddelelser: Record Report

H.o.h 151 ft 64.74 °N, 156.94 °W | Updated 59 minutes ago

Clear
Klart
39 °F
Feels Like 36 °F
N
5
Vind Variabel Vind from VSV

I dag
High -- | Low -- °F
--% Chance of Precip.
I går
High -- | Low -- °F
Precip. -- tommer
7:14 AM 9:44 PM
Første kvarter, 51% visible
Lufttrykk 29.85 tommer
Sikt 10.0 eng. mil
Skyet Klart
Nedkjølingseffekt 36 °F
Duggpunkt 35 °F
Fuktighet 86%
Regn 0.00 tommer
Snødybde Not available.
UV 0 av 12
Pollen Not available.
Luftkvalitet Not available.
Flu Activity Not available.
METAR PAGA 021258Z AUTO 24004KT 10SM CLR 04/02 A2983 RMK AO2 SLP107 T00390017 PNO $

More Conditions Fewer Conditions

Lufttrykk 29.85 tommer
Sikt 10.0 eng. mil
Skyet Klart
Nedkjølingseffekt 36 °F
Duggpunkt 35 °F
Fuktighet 86%
Regn 0.00 tommer
Snødybde Not available.
UV 0 av 12
Pollen Not available.
Luftkvalitet Not available.
Flu Activity Not available.
METAR PAGA 021258Z AUTO 24004KT 10SM CLR 04/02 A2983 RMK AO2 SLP107 T00390017 PNO $

More Conditions Fewer Conditions

10-Day Weather Forecast

Almanac

Astronomi

Sep. 02, 2014 Oppgang Nedgang
Virkelig tid 07:14 AKDT 21:44 AKDT
Tussmørke 06:19 AKDT 22:38 AKDT
Nautisk skumring 05:02 AKDT 23:53 AKDT
Astronomisk skumring 03:02 AKDT 01:57 AKDT
Månen 17:57 AKDT Månen går ikke ned
Lengde av synlig lys 16h 19m
Dagens lengde
14h 30m
Tomorrow will be 6m 44s shorter.
Første kvarter, 51% of the Moon is Illuminated
I dag
Første kvarter
Sep 8
Fullmåne
Sep 15
Siste kvarter
Sep 24
Ny
Oct 1
Første kvarter

Dagens maks og min

State Highs State Lows

Community

WunderPhotos

Upload Photos

1,749,656 photos uploaded!

Nearby

Snødybde

Stasjon Depth Høyde over havet
Rocky Point 4 in 500 ft
Gobblers Knob 0 in 2030 ft
Coldfoot 0 in 1040 ft
Susitna Valley High 2 in 375 ft
Atigun Pass 9 in 4800 ft

Earthquake Activity

By Distance Mag. Time & Date
No recent earthquake activity has been reported nearby.
Minimum magnitude displayed is 2.5.

Coastal Water Temperatures

Sted Temperatur
Ingen stasjoner raporterer

Nearby Weather Stations